sensor_id;sensor_type;location;lat;lon;timestamp;temperature;humidity
36352;DHT22;22382;44.768;17.206;2022-07-05T00:01:16;23.80;99.90
36352;DHT22;22382;44.768;17.206;2022-07-05T00:03:43;23.70;99.90
36352;DHT22;22382;44.768;17.206;2022-07-05T00:06:10;23.70;99.90
36352;DHT22;22382;44.768;17.206;2022-07-05T00:08:37;23.60;99.90
36352;DHT22;22382;44.768;17.206;2022-07-05T00:11:04;23.60;99.90
36352;DHT22;22382;44.768;17.206;2022-07-05T00:13:31;23.50;99.90
36352;DHT22;22382;44.768;17.206;2022-07-05T00:15:58;23.50;99.90
36352;DHT22;22382;44.768;17.206;2022-07-05T00:18:25;23.50;99.90
36352;DHT22;22382;44.768;17.206;2022-07-05T00:20:52;23.50;99.90
36352;DHT22;22382;44.768;17.206;2022-07-05T00:23:19;23.50;99.90
36352;DHT22;22382;44.768;17.206;2022-07-05T00:25:46;23.50;99.90
36352;DHT22;22382;44.768;17.206;2022-07-05T00:28:13;23.50;99.90
36352;DHT22;22382;44.768;17.206;2022-07-05T00:30:41;23.50;99.90
36352;DHT22;22382;44.768;17.206;2022-07-05T00:33:08;23.50;99.90
36352;DHT22;22382;44.768;17.206;2022-07-05T00:35:35;23.50;99.90
36352;DHT22;22382;44.768;17.206;2022-07-05T00:38:02;23.60;99.90
36352;DHT22;22382;44.768;17.206;2022-07-05T00:40:29;23.60;99.90
36352;DHT22;22382;44.768;17.206;2022-07-05T00:42:56;23.60;99.90
36352;DHT22;22382;44.768;17.206;2022-07-05T00:45:23;23.60;99.90
36352;DHT22;22382;44.768;17.206;2022-07-05T00:47:50;23.50;99.90
36352;DHT22;22382;44.768;17.206;2022-07-05T00:50:17;23.40;99.90
36352;DHT22;22382;44.768;17.206;2022-07-05T00:52:43;23.40;99.90
36352;DHT22;22382;44.768;17.206;2022-07-05T00:55:10;23.30;99.90
36352;DHT22;22382;44.768;17.206;2022-07-05T00:57:37;23.40;99.90
36352;DHT22;22382;44.768;17.206;2022-07-05T01:00:04;23.40;99.90
36352;DHT22;22382;44.768;17.206;2022-07-05T01:02:32;23.40;99.90
36352;DHT22;22382;44.768;17.206;2022-07-05T01:04:59;23.40;99.90
36352;DHT22;22382;44.768;17.206;2022-07-05T01:07:27;23.40;99.90
36352;DHT22;22382;44.768;17.206;2022-07-05T01:09:54;23.40;99.90
36352;DHT22;22382;44.768;17.206;2022-07-05T01:12:21;23.30;99.90
36352;DHT22;22382;44.768;17.206;2022-07-05T01:14:48;23.20;99.90
36352;DHT22;22382;44.768;17.206;2022-07-05T01:17:15;23.20;99.90
36352;DHT22;22382;44.768;17.206;2022-07-05T01:19:42;23.30;99.90
36352;DHT22;22382;44.768;17.206;2022-07-05T01:22:15;23.30;99.90
36352;DHT22;22382;44.768;17.206;2022-07-05T01:24:44;23.30;99.90
36352;DHT22;22382;44.768;17.206;2022-07-05T01:27:11;23.40;99.90
36352;DHT22;22382;44.768;17.206;2022-07-05T01:29:39;23.40;99.90
36352;DHT22;22382;44.768;17.206;2022-07-05T01:32:05;23.40;99.90
36352;DHT22;22382;44.768;17.206;2022-07-05T01:34:33;23.40;99.90
36352;DHT22;22382;44.768;17.206;2022-07-05T01:37:03;23.40;99.90
36352;DHT22;22382;44.768;17.206;2022-07-05T01:39:30;23.40;99.90
36352;DHT22;22382;44.768;17.206;2022-07-05T01:41:57;23.50;99.90
36352;DHT22;22382;44.768;17.206;2022-07-05T01:44:24;23.50;99.90
36352;DHT22;22382;44.768;17.206;2022-07-05T01:46:54;23.60;99.90
36352;DHT22;22382;44.768;17.206;2022-07-05T01:49:22;23.60;99.90
36352;DHT22;22382;44.768;17.206;2022-07-05T01:51:51;23.60;99.90
36352;DHT22;22382;44.768;17.206;2022-07-05T01:54:19;23.60;99.90
36352;DHT22;22382;44.768;17.206;2022-07-05T01:56:46;23.60;99.90
36352;DHT22;22382;44.768;17.206;2022-07-05T01:59:13;23.60;99.90
36352;DHT22;22382;44.768;17.206;2022-07-05T02:01:40;23.60;99.90
36352;DHT22;22382;44.768;17.206;2022-07-05T02:04:08;23.60;99.90
36352;DHT22;22382;44.768;17.206;2022-07-05T02:06:35;23.50;99.90
36352;DHT22;22382;44.768;17.206;2022-07-05T02:09:04;23.50;99.90
36352;DHT22;22382;44.768;17.206;2022-07-05T02:11:31;23.50;99.90
36352;DHT22;22382;44.768;17.206;2022-07-05T02:13:57;23.40;99.90
36352;DHT22;22382;44.768;17.206;2022-07-05T02:16:25;23.40;99.90
36352;DHT22;22382;44.768;17.206;2022-07-05T02:18:52;23.40;99.90
36352;DHT22;22382;44.768;17.206;2022-07-05T02:21:19;23.30;99.90
36352;DHT22;22382;44.768;17.206;2022-07-05T02:23:46;23.30;99.90
36352;DHT22;22382;44.768;17.206;2022-07-05T02:26:13;23.20;99.90
36352;DHT22;22382;44.768;17.206;2022-07-05T02:28:40;23.20;99.90
36352;DHT22;22382;44.768;17.206;2022-07-05T02:31:07;23.20;99.90
36352;DHT22;22382;44.768;17.206;2022-07-05T02:33:34;23.10;99.90
36352;DHT22;22382;44.768;17.206;2022-07-05T02:38:34;23.00;99.90
36352;DHT22;22382;44.768;17.206;2022-07-05T02:41:03;23.00;99.90
36352;DHT22;22382;44.768;17.206;2022-07-05T02:43:30;22.90;99.90
36352;DHT22;22382;44.768;17.206;2022-07-05T02:45:57;23.00;99.90
36352;DHT22;22382;44.768;17.206;2022-07-05T02:48:24;23.00;99.90
36352;DHT22;22382;44.768;17.206;2022-07-05T02:50:51;23.00;99.90
36352;DHT22;22382;44.768;17.206;2022-07-05T02:53:18;23.10;99.90
36352;DHT22;22382;44.768;17.206;2022-07-05T02:55:45;23.00;99.90
36352;DHT22;22382;44.768;17.206;2022-07-05T02:58:11;23.10;99.90
36352;DHT22;22382;44.768;17.206;2022-07-05T03:00:38;23.00;99.90
36352;DHT22;22382;44.768;17.206;2022-07-05T03:03:05;23.10;99.90
36352;DHT22;22382;44.768;17.206;2022-07-05T03:05:32;23.00;99.90
36352;DHT22;22382;44.768;17.206;2022-07-05T03:07:59;23.00;99.90
36352;DHT22;22382;44.768;17.206;2022-07-05T03:10:26;23.00;99.90
36352;DHT22;22382;44.768;17.206;2022-07-05T03:12:53;23.00;99.90
36352;DHT22;22382;44.768;17.206;2022-07-05T03:15:20;23.00;99.90
36352;DHT22;22382;44.768;17.206;2022-07-05T03:17:47;23.00;99.90
36352;DHT22;22382;44.768;17.206;2022-07-05T03:20:13;22.90;99.90
36352;DHT22;22382;44.768;17.206;2022-07-05T03:22:40;23.00;99.90
36352;DHT22;22382;44.768;17.206;2022-07-05T03:25:08;23.00;99.90
36352;DHT22;22382;44.768;17.206;2022-07-05T03:27:35;23.00;99.90
36352;DHT22;22382;44.768;17.206;2022-07-05T03:30:03;23.10;99.90
36352;DHT22;22382;44.768;17.206;2022-07-05T03:32:30;23.10;99.90
36352;DHT22;22382;44.768;17.206;2022-07-05T03:34:57;23.20;99.90
36352;DHT22;22382;44.768;17.206;2022-07-05T03:37:23;23.40;99.90
36352;DHT22;22382;44.768;17.206;2022-07-05T03:39:50;23.50;99.90
36352;DHT22;22382;44.768;17.206;2022-07-05T03:42:17;23.60;99.90
36352;DHT22;22382;44.768;17.206;2022-07-05T03:44:44;23.70;99.90
36352;DHT22;22382;44.768;17.206;2022-07-05T03:47:11;23.90;99.90
36352;DHT22;22382;44.768;17.206;2022-07-05T03:49:38;24.10;99.90
36352;DHT22;22382;44.768;17.206;2022-07-05T03:52:04;24.30;99.90
36352;DHT22;22382;44.768;17.206;2022-07-05T03:54:31;24.60;99.90
36352;DHT22;22382;44.768;17.206;2022-07-05T03:56:58;24.80;99.90
36352;DHT22;22382;44.768;17.206;2022-07-05T03:59:25;25.00;99.90
36352;DHT22;22382;44.768;17.206;2022-07-05T04:01:52;25.20;98.90
36352;DHT22;22382;44.768;17.206;2022-07-05T04:04:19;25.40;97.60
36352;DHT22;22382;44.768;17.206;2022-07-05T04:06:46;25.50;96.50
36352;DHT22;22382;44.768;17.206;2022-07-05T04:09:12;25.50;95.80
36352;DHT22;22382;44.768;17.206;2022-07-05T04:11:39;25.60;95.50
36352;DHT22;22382;44.768;17.206;2022-07-05T04:14:06;25.70;94.90
36352;DHT22;22382;44.768;17.206;2022-07-05T04:16:36;25.60;94.50
36352;DHT22;22382;44.768;17.206;2022-07-05T04:19:03;25.40;94.90
36352;DHT22;22382;44.768;17.206;2022-07-05T04:21:29;25.20;95.40
36352;DHT22;22382;44.768;17.206;2022-07-05T04:23:56;25.10;96.20
36352;DHT22;22382;44.768;17.206;2022-07-05T04:26:23;24.90;97.30
36352;DHT22;22382;44.768;17.206;2022-07-05T04:28:50;24.80;98.40
36352;DHT22;22382;44.768;17.206;2022-07-05T04:31:22;24.60;99.40
36352;DHT22;22382;44.768;17.206;2022-07-05T04:33:51;24.30;99.90
36352;DHT22;22382;44.768;17.206;2022-07-05T04:36:18;24.20;99.90
36352;DHT22;22382;44.768;17.206;2022-07-05T04:38:45;24.20;99.90
36352;DHT22;22382;44.768;17.206;2022-07-05T04:41:12;24.20;99.90
36352;DHT22;22382;44.768;17.206;2022-07-05T04:43:38;24.20;99.90
36352;DHT22;22382;44.768;17.206;2022-07-05T04:46:05;24.10;99.90
36352;DHT22;22382;44.768;17.206;2022-07-05T04:48:32;24.10;99.90
36352;DHT22;22382;44.768;17.206;2022-07-05T04:50:59;24.00;99.90
36352;DHT22;22382;44.768;17.206;2022-07-05T04:53:26;24.10;99.90
36352;DHT22;22382;44.768;17.206;2022-07-05T04:55:53;24.10;99.90
36352;DHT22;22382;44.768;17.206;2022-07-05T04:58:20;24.20;99.90
36352;DHT22;22382;44.768;17.206;2022-07-05T05:00:47;24.20;99.90
36352;DHT22;22382;44.768;17.206;2022-07-05T05:03:13;24.20;99.90
36352;DHT22;22382;44.768;17.206;2022-07-05T05:05:40;24.30;99.90
36352;DHT22;22382;44.768;17.206;2022-07-05T05:08:07;24.20;99.90
36352;DHT22;22382;44.768;17.206;2022-07-05T05:10:34;24.10;99.90
36352;DHT22;22382;44.768;17.206;2022-07-05T05:13:01;24.20;99.90
36352;DHT22;22382;44.768;17.206;2022-07-05T05:15:28;24.50;99.90
36352;DHT22;22382;44.768;17.206;2022-07-05T05:17:55;25.00;99.90
36352;DHT22;22382;44.768;17.206;2022-07-05T05:20:22;25.50;99.30
36352;DHT22;22382;44.768;17.206;2022-07-05T05:22:48;25.80;97.40
36352;DHT22;22382;44.768;17.206;2022-07-05T05:25:15;26.20;95.00
36352;DHT22;22382;44.768;17.206;2022-07-05T05:30:14;26.70;92.10
36352;DHT22;22382;44.768;17.206;2022-07-05T05:32:41;26.60;92.00
36352;DHT22;22382;44.768;17.206;2022-07-05T05:35:08;26.90;91.40
36352;DHT22;22382;44.768;17.206;2022-07-05T05:37:45;27.20;90.60
36352;DHT22;22382;44.768;17.206;2022-07-05T05:40:12;27.60;88.60
36352;DHT22;22382;44.768;17.206;2022-07-05T05:42:39;27.90;86.60
36352;DHT22;22382;44.768;17.206;2022-07-05T05:45:06;28.40;84.20
36352;DHT22;22382;44.768;17.206;2022-07-05T05:47:34;28.70;81.10
36352;DHT22;22382;44.768;17.206;2022-07-05T05:50:08;29.00;79.40
36352;DHT22;22382;44.768;17.206;2022-07-05T05:52:35;29.60;75.70
36352;DHT22;22382;44.768;17.206;2022-07-05T05:55:02;29.70;74.10
36352;DHT22;22382;44.768;17.206;2022-07-05T05:57:29;29.00;74.60
36352;DHT22;22382;44.768;17.206;2022-07-05T05:59:56;28.70;76.90
36352;DHT22;22382;44.768;17.206;2022-07-05T06:02:22;28.60;77.50
36352;DHT22;22382;44.768;17.206;2022-07-05T06:04:50;28.70;77.30
36352;DHT22;22382;44.768;17.206;2022-07-05T06:07:17;28.60;76.30
36352;DHT22;22382;44.768;17.206;2022-07-05T06:09:43;28.00;78.20
36352;DHT22;22382;44.768;17.206;2022-07-05T06:12:11;27.80;79.40
36352;DHT22;22382;44.768;17.206;2022-07-05T06:14:37;28.00;77.50
36352;DHT22;22382;44.768;17.206;2022-07-05T06:17:04;27.50;79.30
36352;DHT22;22382;44.768;17.206;2022-07-05T06:19:31;27.80;78.80
36352;DHT22;22382;44.768;17.206;2022-07-05T06:21:58;27.70;78.50
36352;DHT22;22382;44.768;17.206;2022-07-05T06:24:26;27.90;78.40
36352;DHT22;22382;44.768;17.206;2022-07-05T06:26:52;27.40;78.10
36352;DHT22;22382;44.768;17.206;2022-07-05T06:29:19;27.00;80.20
36352;DHT22;22382;44.768;17.206;2022-07-05T06:31:46;27.40;80.00
36352;DHT22;22382;44.768;17.206;2022-07-05T06:34:13;27.50;79.60
36352;DHT22;22382;44.768;17.206;2022-07-05T06:36:40;27.30;80.40
36352;DHT22;22382;44.768;17.206;2022-07-05T06:39:07;27.30;79.60
36352;DHT22;22382;44.768;17.206;2022-07-05T06:41:34;27.40;79.00
36352;DHT22;22382;44.768;17.206;2022-07-05T06:44:01;26.90;81.40
36352;DHT22;22382;44.768;17.206;2022-07-05T06:46:48;27.20;81.00
36352;DHT22;22382;44.768;17.206;2022-07-05T06:49:15;26.90;81.20
36352;DHT22;22382;44.768;17.206;2022-07-05T06:51:42;26.70;83.20
36352;DHT22;22382;44.768;17.206;2022-07-05T06:54:08;26.80;83.00
36352;DHT22;22382;44.768;17.206;2022-07-05T06:56:55;26.70;83.30
36352;DHT22;22382;44.768;17.206;2022-07-05T06:59:42;26.40;85.40
36352;DHT22;22382;44.768;17.206;2022-07-05T07:02:26;26.70;84.00
36352;DHT22;22382;44.768;17.206;2022-07-05T07:04:53;27.40;81.90
36352;DHT22;22382;44.768;17.206;2022-07-05T07:07:38;27.60;80.40
36352;DHT22;22382;44.768;17.206;2022-07-05T07:10:23;27.60;79.90
36352;DHT22;22382;44.768;17.206;2022-07-05T07:12:54;27.10;81.40
36352;DHT22;22382;44.768;17.206;2022-07-05T07:15:22;26.80;82.50
36352;DHT22;22382;44.768;17.206;2022-07-05T07:17:49;26.90;82.90
36352;DHT22;22382;44.768;17.206;2022-07-05T07:20:16;26.80;85.20
36352;DHT22;22382;44.768;17.206;2022-07-05T07:22:43;26.30;90.30
36352;DHT22;22382;44.768;17.206;2022-07-05T07:25:10;26.20;91.20
36352;DHT22;22382;44.768;17.206;2022-07-05T07:27:42;25.70;92.90
36352;DHT22;22382;44.768;17.206;2022-07-05T07:30:10;26.10;94.60
36352;DHT22;22382;44.768;17.206;2022-07-05T07:32:37;26.50;93.50
36352;DHT22;22382;44.768;17.206;2022-07-05T07:35:05;26.60;92.00
36352;DHT22;22382;44.768;17.206;2022-07-05T07:37:32;27.00;91.90
36352;DHT22;22382;44.768;17.206;2022-07-05T07:39:59;27.10;90.00
36352;DHT22;22382;44.768;17.206;2022-07-05T07:42:27;27.30;86.60
36352;DHT22;22382;44.768;17.206;2022-07-05T07:44:54;27.10;86.10
36352;DHT22;22382;44.768;17.206;2022-07-05T07:47:21;26.70;86.50
36352;DHT22;22382;44.768;17.206;2022-07-05T07:49:48;27.10;86.60
36352;DHT22;22382;44.768;17.206;2022-07-05T07:52:16;27.60;84.80
36352;DHT22;22382;44.768;17.206;2022-07-05T07:54:43;27.90;84.00
36352;DHT22;22382;44.768;17.206;2022-07-05T07:57:11;28.30;82.20
36352;DHT22;22382;44.768;17.206;2022-07-05T07:59:38;28.50;79.50
36352;DHT22;22382;44.768;17.206;2022-07-05T08:02:04;28.40;79.00
36352;DHT22;22382;44.768;17.206;2022-07-05T08:04:31;28.40;78.00
36352;DHT22;22382;44.768;17.206;2022-07-05T08:06:59;28.50;76.20
36352;DHT22;22382;44.768;17.206;2022-07-05T08:09:25;28.30;76.80
36352;DHT22;22382;44.768;17.206;2022-07-05T08:11:52;28.00;77.60
36352;DHT22;22382;44.768;17.206;2022-07-05T08:14:18;27.80;78.50
36352;DHT22;22382;44.768;17.206;2022-07-05T08:16:46;27.90;78.80
36352;DHT22;22382;44.768;17.206;2022-07-05T08:19:18;28.00;78.30
36352;DHT22;22382;44.768;17.206;2022-07-05T08:22:04;28.20;77.10
36352;DHT22;22382;44.768;17.206;2022-07-05T08:24:31;28.40;77.20
36352;DHT22;22382;44.768;17.206;2022-07-05T08:26:58;28.50;77.00
36352;DHT22;22382;44.768;17.206;2022-07-05T08:29:25;28.60;75.80
36352;DHT22;22382;44.768;17.206;2022-07-05T08:31:52;28.70;76.10
36352;DHT22;22382;44.768;17.206;2022-07-05T08:34:18;29.00;75.00
36352;DHT22;22382;44.768;17.206;2022-07-05T08:36:46;28.60;74.60
36352;DHT22;22382;44.768;17.206;2022-07-05T08:39:13;28.90;73.90
36352;DHT22;22382;44.768;17.206;2022-07-05T08:41:40;29.10;74.10
36352;DHT22;22382;44.768;17.206;2022-07-05T08:44:08;29.20;74.10
36352;DHT22;22382;44.768;17.206;2022-07-05T08:46:38;29.10;75.00
36352;DHT22;22382;44.768;17.206;2022-07-05T08:49:06;29.00;74.10
36352;DHT22;22382;44.768;17.206;2022-07-05T08:51:38;28.90;74.40
36352;DHT22;22382;44.768;17.206;2022-07-05T08:54:06;28.60;75.40
36352;DHT22;22382;44.768;17.206;2022-07-05T08:56:34;28.70;75.80
36352;DHT22;22382;44.768;17.206;2022-07-05T08:59:22;28.70;75.20
36352;DHT22;22382;44.768;17.206;2022-07-05T09:01:49;28.80;75.40
36352;DHT22;22382;44.768;17.206;2022-07-05T09:04:16;29.00;74.50
36352;DHT22;22382;44.768;17.206;2022-07-05T09:06:46;29.10;74.80
36352;DHT22;22382;44.768;17.206;2022-07-05T09:09:13;29.50;73.20
36352;DHT22;22382;44.768;17.206;2022-07-05T09:11:42;29.20;73.70
36352;DHT22;22382;44.768;17.206;2022-07-05T09:14:30;28.90;73.70
36352;DHT22;22382;44.768;17.206;2022-07-05T09:16:57;28.60;73.90
36352;DHT22;22382;44.768;17.206;2022-07-05T09:19:24;28.30;75.60
36352;DHT22;22382;44.768;17.206;2022-07-05T09:22:01;27.90;77.50
36352;DHT22;22382;44.768;17.206;2022-07-05T09:24:29;28.10;77.60
36352;DHT22;22382;44.768;17.206;2022-07-05T09:27:04;27.90;78.50
36352;DHT22;22382;44.768;17.206;2022-07-05T09:29:31;28.30;77.20
36352;DHT22;22382;44.768;17.206;2022-07-05T09:32:22;28.50;75.90
36352;DHT22;22382;44.768;17.206;2022-07-05T09:34:49;28.70;75.50
36352;DHT22;22382;44.768;17.206;2022-07-05T09:37:16;28.90;75.60
36352;DHT22;22382;44.768;17.206;2022-07-05T09:39:43;29.00;75.70
36352;DHT22;22382;44.768;17.206;2022-07-05T09:42:21;29.30;73.70
36352;DHT22;22382;44.768;17.206;2022-07-05T09:44:54;29.50;73.70
36352;DHT22;22382;44.768;17.206;2022-07-05T09:47:22;29.30;73.60
36352;DHT22;22382;44.768;17.206;2022-07-05T09:49:56;29.80;72.50
36352;DHT22;22382;44.768;17.206;2022-07-05T09:52:40;29.90;72.10
36352;DHT22;22382;44.768;17.206;2022-07-05T09:57:35;30.00;71.60
36352;DHT22;22382;44.768;17.206;2022-07-05T10:00:03;29.80;71.50
36352;DHT22;22382;44.768;17.206;2022-07-05T10:02:38;29.90;71.70
36352;DHT22;22382;44.768;17.206;2022-07-05T10:05:09;29.90;71.50
36352;DHT22;22382;44.768;17.206;2022-07-05T10:07:35;30.10;70.70
36352;DHT22;22382;44.768;17.206;2022-07-05T10:10:11;30.10;70.40
36352;DHT22;22382;44.768;17.206;2022-07-05T10:12:38;30.10;70.40
36352;DHT22;22382;44.768;17.206;2022-07-05T10:15:06;30.10;70.60
36352;DHT22;22382;44.768;17.206;2022-07-05T10:17:36;30.30;70.70
36352;DHT22;22382;44.768;17.206;2022-07-05T10:20:10;30.10;70.70
36352;DHT22;22382;44.768;17.206;2022-07-05T10:22:37;30.30;70.50
36352;DHT22;22382;44.768;17.206;2022-07-05T10:25:05;30.40;69.70
36352;DHT22;22382;44.768;17.206;2022-07-05T10:27:32;30.40;69.00
36352;DHT22;22382;44.768;17.206;2022-07-05T10:29:59;30.40;68.90
36352;DHT22;22382;44.768;17.206;2022-07-05T10:32:28;30.40;69.20
36352;DHT22;22382;44.768;17.206;2022-07-05T10:34:55;30.20;69.50
36352;DHT22;22382;44.768;17.206;2022-07-05T10:37:24;30.30;69.70
36352;DHT22;22382;44.768;17.206;2022-07-05T10:39:53;30.40;68.00
36352;DHT22;22382;44.768;17.206;2022-07-05T10:42:20;30.50;67.80
36352;DHT22;22382;44.768;17.206;2022-07-05T10:44:47;30.60;67.40
36352;DHT22;22382;44.768;17.206;2022-07-05T10:47:14;30.70;66.90
36352;DHT22;22382;44.768;17.206;2022-07-05T10:49:41;30.70;67.10
36352;DHT22;22382;44.768;17.206;2022-07-05T10:52:23;30.70;67.80
36352;DHT22;22382;44.768;17.206;2022-07-05T10:57:36;31.20;66.90
36352;DHT22;22382;44.768;17.206;2022-07-05T11:00:09;31.00;66.60
36352;DHT22;22382;44.768;17.206;2022-07-05T11:02:37;31.00;67.10
36352;DHT22;22382;44.768;17.206;2022-07-05T11:05:04;30.90;67.20
36352;DHT22;22382;44.768;17.206;2022-07-05T11:10:17;30.60;67.90
36352;DHT22;22382;44.768;17.206;2022-07-05T11:12:43;30.80;67.40
36352;DHT22;22382;44.768;17.206;2022-07-05T11:15:10;30.80;67.80
36352;DHT22;22382;44.768;17.206;2022-07-05T11:17:38;31.00;68.00
36352;DHT22;22382;44.768;17.206;2022-07-05T11:20:28;30.80;67.70
36352;DHT22;22382;44.768;17.206;2022-07-05T11:25:32;31.10;65.60
36352;DHT22;22382;44.768;17.206;2022-07-05T11:28:00;31.00;66.80
36352;DHT22;22382;44.768;17.206;2022-07-05T11:30:28;31.00;67.00
36352;DHT22;22382;44.768;17.206;2022-07-05T11:32:55;31.20;66.40
36352;DHT22;22382;44.768;17.206;2022-07-05T11:35:28;31.10;67.50
36352;DHT22;22382;44.768;17.206;2022-07-05T11:38:03;30.70;68.40
36352;DHT22;22382;44.768;17.206;2022-07-05T11:40:50;31.00;68.60
36352;DHT22;22382;44.768;17.206;2022-07-05T11:43:28;31.20;68.50
36352;DHT22;22382;44.768;17.206;2022-07-05T11:45:56;31.20;67.40
36352;DHT22;22382;44.768;17.206;2022-07-05T11:48:23;31.00;67.40
36352;DHT22;22382;44.768;17.206;2022-07-05T11:50:50;31.00;67.50
36352;DHT22;22382;44.768;17.206;2022-07-05T11:53:27;31.20;66.90
36352;DHT22;22382;44.768;17.206;2022-07-05T11:56:14;31.90;65.90
36352;DHT22;22382;44.768;17.206;2022-07-05T11:58:41;32.20;65.20
36352;DHT22;22382;44.768;17.206;2022-07-05T12:01:08;32.20;65.40
36352;DHT22;22382;44.768;17.206;2022-07-05T12:03:34;31.70;65.40
36352;DHT22;22382;44.768;17.206;2022-07-05T12:06:20;31.50;65.60
36352;DHT22;22382;44.768;17.206;2022-07-05T12:08:47;31.20;66.40
36352;DHT22;22382;44.768;17.206;2022-07-05T12:11:14;31.40;66.10
36352;DHT22;22382;44.768;17.206;2022-07-05T12:13:59;31.90;64.90
36352;DHT22;22382;44.768;17.206;2022-07-05T12:16:26;32.60;63.60
36352;DHT22;22382;44.768;17.206;2022-07-05T12:18:54;33.00;63.30
36352;DHT22;22382;44.768;17.206;2022-07-05T12:21:27;32.80;63.50
36352;DHT22;22382;44.768;17.206;2022-07-05T12:23:54;32.60;63.40
36352;DHT22;22382;44.768;17.206;2022-07-05T12:26:21;32.50;63.40
36352;DHT22;22382;44.768;17.206;2022-07-05T12:28:49;32.40;63.50
36352;DHT22;22382;44.768;17.206;2022-07-05T12:31:17;32.20;64.10
36352;DHT22;22382;44.768;17.206;2022-07-05T12:33:44;32.20;64.50
36352;DHT22;22382;44.768;17.206;2022-07-05T12:36:14;32.00;64.40
36352;DHT22;22382;44.768;17.206;2022-07-05T12:38:41;31.60;65.20
36352;DHT22;22382;44.768;17.206;2022-07-05T12:41:08;31.60;65.50
36352;DHT22;22382;44.768;17.206;2022-07-05T12:43:48;31.30;66.00
36352;DHT22;22382;44.768;17.206;2022-07-05T12:46:15;31.60;65.40
36352;DHT22;22382;44.768;17.206;2022-07-05T12:48:42;31.50;66.00
36352;DHT22;22382;44.768;17.206;2022-07-05T12:51:10;31.10;66.20
36352;DHT22;22382;44.768;17.206;2022-07-05T12:53:49;31.20;66.40
36352;DHT22;22382;44.768;17.206;2022-07-05T12:56:35;31.40;65.90
36352;DHT22;22382;44.768;17.206;2022-07-05T12:59:56;31.30;66.10
36352;DHT22;22382;44.768;17.206;2022-07-05T13:02:42;31.20;66.50
36352;DHT22;22382;44.768;17.206;2022-07-05T13:05:10;31.20;66.60
36352;DHT22;22382;44.768;17.206;2022-07-05T13:07:49;31.30;66.10
36352;DHT22;22382;44.768;17.206;2022-07-05T13:10:20;31.40;65.80
36352;DHT22;22382;44.768;17.206;2022-07-05T13:12:48;31.50;65.90
36352;DHT22;22382;44.768;17.206;2022-07-05T13:15:15;31.40;65.30
36352;DHT22;22382;44.768;17.206;2022-07-05T13:17:43;31.30;66.30
36352;DHT22;22382;44.768;17.206;2022-07-05T13:20:15;31.20;65.50
36352;DHT22;22382;44.768;17.206;2022-07-05T13:22:45;31.20;65.90
36352;DHT22;22382;44.768;17.206;2022-07-05T13:25:13;30.90;65.90
36352;DHT22;22382;44.768;17.206;2022-07-05T13:27:40;30.70;66.60
36352;DHT22;22382;44.768;17.206;2022-07-05T13:30:07;30.60;66.90
36352;DHT22;22382;44.768;17.206;2022-07-05T13:32:34;30.60;66.30
36352;DHT22;22382;44.768;17.206;2022-07-05T13:35:01;30.70;66.00
36352;DHT22;22382;44.768;17.206;2022-07-05T13:37:31;30.50;65.90
36352;DHT22;22382;44.768;17.206;2022-07-05T13:40:05;30.20;66.20
36352;DHT22;22382;44.768;17.206;2022-07-05T13:42:33;29.70;67.40
36352;DHT22;22382;44.768;17.206;2022-07-05T13:45:00;29.30;67.60
36352;DHT22;22382;44.768;17.206;2022-07-05T13:47:27;29.20;68.10
36352;DHT22;22382;44.768;17.206;2022-07-05T13:49:55;29.30;67.80
36352;DHT22;22382;44.768;17.206;2022-07-05T13:53:01;29.10;67.40
36352;DHT22;22382;44.768;17.206;2022-07-05T13:55:31;28.90;67.50
36352;DHT22;22382;44.768;17.206;2022-07-05T13:58:06;28.80;68.00
36352;DHT22;22382;44.768;17.206;2022-07-05T14:00:33;28.70;68.70
36352;DHT22;22382;44.768;17.206;2022-07-05T14:03:00;28.60;69.00
36352;DHT22;22382;44.768;17.206;2022-07-05T14:05:32;28.50;68.90
36352;DHT22;22382;44.768;17.206;2022-07-05T14:07:59;28.40;69.30
36352;DHT22;22382;44.768;17.206;2022-07-05T14:10:26;28.20;68.20
36352;DHT22;22382;44.768;17.206;2022-07-05T14:12:53;28.10;69.50
36352;DHT22;22382;44.768;17.206;2022-07-05T14:15:20;28.10;68.70
36352;DHT22;22382;44.768;17.206;2022-07-05T14:17:47;28.10;69.00
36352;DHT22;22382;44.768;17.206;2022-07-05T14:20:14;28.00;69.70
36352;DHT22;22382;44.768;17.206;2022-07-05T14:22:41;27.90;70.00
36352;DHT22;22382;44.768;17.206;2022-07-05T14:25:08;27.90;70.60
36352;DHT22;22382;44.768;17.206;2022-07-05T14:27:35;27.80;71.20
36352;DHT22;22382;44.768;17.206;2022-07-05T14:30:02;27.80;71.80
36352;DHT22;22382;44.768;17.206;2022-07-05T14:32:30;27.80;72.30
36352;DHT22;22382;44.768;17.206;2022-07-05T14:34:56;27.80;72.80
36352;DHT22;22382;44.768;17.206;2022-07-05T14:37:23;27.80;72.80
36352;DHT22;22382;44.768;17.206;2022-07-05T14:39:50;27.70;73.30
36352;DHT22;22382;44.768;17.206;2022-07-05T14:42:17;27.80;73.40
36352;DHT22;22382;44.768;17.206;2022-07-05T14:44:44;27.70;73.60
36352;DHT22;22382;44.768;17.206;2022-07-05T14:47:11;27.70;73.80
36352;DHT22;22382;44.768;17.206;2022-07-05T14:49:38;27.70;74.00
36352;DHT22;22382;44.768;17.206;2022-07-05T14:52:05;27.60;74.40
36352;DHT22;22382;44.768;17.206;2022-07-05T14:54:32;27.60;74.70
36352;DHT22;22382;44.768;17.206;2022-07-05T14:56:59;27.50;76.10
36352;DHT22;22382;44.768;17.206;2022-07-05T14:59:26;27.40;77.90
36352;DHT22;22382;44.768;17.206;2022-07-05T15:01:53;27.20;79.60
36352;DHT22;22382;44.768;17.206;2022-07-05T15:04:19;27.10;82.00
36352;DHT22;22382;44.768;17.206;2022-07-05T15:06:46;27.00;85.40
36352;DHT22;22382;44.768;17.206;2022-07-05T15:09:14;26.80;88.30
36352;DHT22;22382;44.768;17.206;2022-07-05T15:11:41;26.70;90.20
36352;DHT22;22382;44.768;17.206;2022-07-05T15:14:08;26.60;91.50
36352;DHT22;22382;44.768;17.206;2022-07-05T15:16:35;26.60;93.20
36352;DHT22;22382;44.768;17.206;2022-07-05T15:19:03;26.50;94.70
36352;DHT22;22382;44.768;17.206;2022-07-05T15:21:31;26.40;95.60
36352;DHT22;22382;44.768;17.206;2022-07-05T15:23:58;26.40;96.60
36352;DHT22;22382;44.768;17.206;2022-07-05T15:26:42;26.40;97.40
36352;DHT22;22382;44.768;17.206;2022-07-05T15:29:10;26.40;98.80
36352;DHT22;22382;44.768;17.206;2022-07-05T15:31:37;26.30;99.90
36352;DHT22;22382;44.768;17.206;2022-07-05T15:34:04;26.20;99.90
36352;DHT22;22382;44.768;17.206;2022-07-05T15:36:31;26.10;99.90
36352;DHT22;22382;44.768;17.206;2022-07-05T15:38:59;26.00;99.90
36352;DHT22;22382;44.768;17.206;2022-07-05T15:41:29;25.90;99.90